Time;durP1;ratioP1;P1;durP2;ratioP2;P2;SDS_P1;SDS_P2;PMS_P1;PMS_P2;Temp;Humidity;BMP_temperature;BMP_pressure;BME280_temperature;BME280_humidity;BME280_pressure;Samples;Min_cycle;Max_cycle;Signal;HPM_P1;HPM_P2
2022/11/14 00:00:36;;;;;;;22.20;15.15;;;4.60;99.90;;;;;;4948253;28;20035;-64
2022/11/14 00:03:05;;;;;;;19.42;13.55;;;4.60;99.90;;;;;;4945382;28;20692;-64
2022/11/14 00:05:31;;;;;;;23.30;14.55;;;4.50;99.90;;;;;;4943779;28;20492;-64
2022/11/14 00:07:57;;;;;;;22.13;15.02;;;4.50;99.90;;;;;;4945779;28;20042;-64
2022/11/14 00:10:23;;;;;;;24.15;15.25;;;4.50;99.90;;;;;;4945080;28;20039;-64
2022/11/14 00:12:48;;;;;;;21.48;14.10;;;4.50;99.90;;;;;;4949319;28;20058;-65
2022/11/14 00:15:14;;;;;;;21.52;14.20;;;4.40;99.90;;;;;;4943787;28;20134;-65
2022/11/14 00:17:40;;;;;;;22.30;14.27;;;4.40;99.90;;;;;;4947067;28;20142;-64
2022/11/14 00:20:08;;;;;;;21.10;14.48;;;4.40;99.90;;;;;;4943293;28;20439;-65
2022/11/14 00:22:34;;;;;;;19.95;13.07;;;4.40;99.90;;;;;;4948052;28;20501;-64
2022/11/14 00:25:00;;;;;;;20.10;13.02;;;4.40;99.90;;;;;;4950337;28;20043;-65
2022/11/14 00:27:25;;;;;;;19.23;13.75;;;4.40;99.90;;;;;;4948185;28;20431;-64
2022/11/14 00:29:51;;;;;;;19.25;12.57;;;4.30;99.90;;;;;;4929125;28;20130;-65
2022/11/14 00:32:17;;;;;;;17.13;12.18;;;4.40;99.90;;;;;;4947698;28;20125;-64
2022/11/14 00:34:42;;;;;;;19.63;12.73;;;4.30;99.90;;;;;;4948602;28;20041;-65
2022/11/14 00:37:08;;;;;;;20.55;13.40;;;4.30;99.90;;;;;;4953785;28;20383;-65
2022/11/14 00:39:33;;;;;;;17.92;12.85;;;4.30;99.90;;;;;;4950630;28;20042;-65
2022/11/14 00:41:59;;;;;;;18.33;12.48;;;4.30;99.90;;;;;;4946982;28;20312;-64
2022/11/14 00:44:25;;;;;;;22.25;13.20;;;4.30;99.90;;;;;;4947043;28;20046;-64
2022/11/14 00:46:50;;;;;;;18.48;13.43;;;4.30;99.90;;;;;;4945062;28;20043;-65
2022/11/14 00:49:16;;;;;;;19.75;13.05;;;4.20;99.90;;;;;;4947515;28;20027;-65
2022/11/14 00:51:41;;;;;;;18.50;12.95;;;4.20;99.90;;;;;;4942796;28;20059;-65
2022/11/14 00:54:07;;;;;;;18.75;12.52;;;4.20;99.90;;;;;;4945318;28;20069;-64
2022/11/14 00:56:32;;;;;;;18.73;12.93;;;4.20;99.90;;;;;;4947684;28;20118;-64
2022/11/14 00:58:58;;;;;;;17.67;12.43;;;4.10;99.90;;;;;;4948415;28;20505;-65
2022/11/14 01:01:23;;;;;;;17.02;12.25;;;4.30;99.90;;;;;;4943318;28;20489;-64
2022/11/14 01:03:50;;;;;;;19.58;12.18;;;4.20;99.90;;;;;;4943414;28;20486;-65
2022/11/14 01:06:17;;;;;;;20.40;12.00;;;4.20;99.90;;;;;;4941519;28;20531;-65
2022/11/14 01:08:43;;;;;;;16.40;11.57;;;4.10;99.90;;;;;;4945877;28;20039;-64
2022/11/14 01:11:11;;;;;;;17.95;10.77;;;4.10;99.90;;;;;;4946289;28;20130;-65
2022/11/14 01:13:38;;;;;;;15.73;11.40;;;4.00;99.90;;;;;;4947674;28;20031;-65
2022/11/14 01:16:04;;;;;;;14.75;10.82;;;4.00;99.90;;;;;;4922929;28;20114;-65
2022/11/14 01:18:29;;;;;;;15.43;10.95;;;4.00;99.90;;;;;;4938838;28;20900;-65
2022/11/14 01:20:55;;;;;;;17.35;11.43;;;4.10;99.90;;;;;;4941303;28;20126;-65
2022/11/14 01:23:20;;;;;;;15.73;10.88;;;4.00;99.90;;;;;;4948439;28;20320;-65
2022/11/14 01:25:46;;;;;;;17.90;11.20;;;4.00;99.90;;;;;;4945175;28;20057;-65
2022/11/14 01:28:17;;;;;;;17.95;10.82;;;3.90;99.90;;;;;;4940667;28;20122;-65
2022/11/14 01:30:43;;;;;;;18.73;11.27;;;3.90;99.90;;;;;;4944144;28;20607;-65
2022/11/14 01:33:09;;;;;;;18.33;10.85;;;3.90;99.90;;;;;;4948649;28;20129;-65
2022/11/14 01:35:36;;;;;;;17.25;11.80;;;4.00;99.90;;;;;;4941341;28;20467;-65
2022/11/14 01:38:03;;;;;;;15.85;11.30;;;4.00;99.90;;;;;;4945258;28;20645;-65
2022/11/14 01:40:29;;;;;;;15.52;10.32;;;4.00;99.90;;;;;;4950045;28;20035;-65
2022/11/14 01:43:16;;;;;;;15.85;10.77;;;3.90;99.90;;;;;;4942815;28;20061;-65
2022/11/14 01:45:52;;;;;;;15.75;11.77;;;4.00;99.90;;;;;;4951747;28;20043;-64
2022/11/14 01:48:23;;;;;;;14.73;10.45;;;4.00;99.90;;;;;;4938319;28;20055;-65
2022/11/14 01:50:54;;;;;;;17.42;11.30;;;3.90;99.90;;;;;;4953516;28;20566;-65
2022/11/14 01:53:20;;;;;;;15.70;10.68;;;3.80;99.90;;;;;;4941339;28;20146;-65
2022/11/14 01:55:45;;;;;;;17.23;10.98;;;3.70;99.90;;;;;;4948901;28;20110;-64
2022/11/14 01:58:12;;;;;;;21.48;11.05;;;3.90;99.90;;;;;;4946895;28;20739;-65
2022/11/14 02:00:37;;;;;;;17.35;10.80;;;3.70;99.90;;;;;;4943452;28;20462;-65
2022/11/14 02:03:03;;;;;;;17.10;11.27;;;3.90;99.90;;;;;;4946678;28;20070;-65
2022/11/14 02:05:29;;;;;;;15.68;10.60;;;3.70;99.90;;;;;;4941494;28;20043;-65
2022/11/14 02:07:55;;;;;;;17.38;11.15;;;3.70;99.90;;;;;;4949280;28;20130;-65
2022/11/14 02:10:21;;;;;;;18.02;10.73;;;3.70;99.90;;;;;;4943516;28;20122;-65
2022/11/14 02:12:48;;;;;;;15.13;10.27;;;3.80;99.90;;;;;;4944548;28;20346;-65
2022/11/14 02:15:14;;;;;;;13.90;10.25;;;3.70;99.90;;;;;;4930962;28;20491;-65
2022/11/14 02:17:41;;;;;;;14.07;10.18;;;3.70;99.90;;;;;;4940730;28;20046;-65
2022/11/14 02:20:09;;;;;;;15.68;10.10;;;3.70;99.90;;;;;;4927948;28;20121;-65
2022/11/14 02:22:36;;;;;;;14.60;9.93;;;3.70;99.90;;;;;;4947933;28;20038;-65
2022/11/14 02:25:02;;;;;;;16.33;10.73;;;3.70;99.90;;;;;;4939152;28;20269;-65
2022/11/14 02:27:30;;;;;;;14.57;9.85;;;3.80;99.90;;;;;;4944314;28;20549;-65
2022/11/14 02:30:03;;;;;;;15.18;10.07;;;3.80;99.90;;;;;;4944445;28;20407;-65
2022/11/14 02:32:29;;;;;;;17.50;10.55;;;3.60;99.90;;;;;;4942976;28;20134;-64
2022/11/14 02:34:54;;;;;;;13.85;9.43;;;3.60;99.90;;;;;;4940540;28;20145;-65
2022/11/14 02:37:20;;;;;;;15.10;9.98;;;3.60;99.90;;;;;;4948501;28;20151;-64
2022/11/14 02:39:46;;;;;;;14.45;10.07;;;3.70;99.90;;;;;;4946173;28;20549;-64
2022/11/14 02:42:12;;;;;;;15.07;9.43;;;3.60;99.90;;;;;;4951717;28;20527;-64
2022/11/14 02:44:38;;;;;;;12.55;9.30;;;3.50;99.90;;;;;;4942004;28;20121;-64
2022/11/14 02:47:03;;;;;;;15.68;10.35;;;3.50;99.90;;;;;;4940152;28;20032;-63
2022/11/14 02:49:29;;;;;;;14.95;9.75;;;3.50;99.90;;;;;;4937040;28;20555;-64
2022/11/14 02:51:54;;;;;;;15.02;10.63;;;3.50;99.90;;;;;;4943804;28;20066;-64
2022/11/14 02:54:20;;;;;;;15.10;10.18;;;3.50;99.90;;;;;;4946515;28;20031;-64
2022/11/14 02:56:45;;;;;;;14.32;9.80;;;3.50;99.90;;;;;;4943123;28;20028;-64
2022/11/14 02:59:11;;;;;;;15.30;10.50;;;3.50;99.90;;;;;;4949114;28;20028;-64
2022/11/14 03:01:37;;;;;;;13.65;9.57;;;3.50;99.90;;;;;;4943625;28;20046;-64
2022/11/14 03:04:02;;;;;;;14.80;10.00;;;3.50;99.90;;;;;;4941178;28;20363;-64
2022/11/14 03:06:28;;;;;;;13.30;9.35;;;3.40;99.90;;;;;;4927740;28;20271;-64
2022/11/14 03:08:53;;;;;;;14.38;9.45;;;3.50;99.90;;;;;;4951985;28;20035;-64
2022/11/14 03:11:19;;;;;;;13.48;9.30;;;3.40;99.90;;;;;;4950263;28;20119;-64
2022/11/14 03:13:44;;;;;;;14.75;9.90;;;3.40;99.90;;;;;;4947024;28;20046;-64
2022/11/14 03:16:12;;;;;;;13.18;9.45;;;3.40;99.90;;;;;;4944862;28;20027;-64
2022/11/14 03:18:37;;;;;;;15.55;10.25;;;3.40;99.90;;;;;;4949393;28;20566;-64
2022/11/14 03:21:08;;;;;;;13.90;9.82;;;3.30;99.90;;;;;;4947045;28;20114;-64
2022/11/14 03:23:33;;;;;;;15.93;9.60;;;3.30;99.90;;;;;;4936039;28;20484;-64
2022/11/14 03:26:01;;;;;;;13.00;9.07;;;3.40;99.90;;;;;;4953707;28;20062;-64
2022/11/14 03:28:26;;;;;;;14.75;9.20;;;3.30;99.90;;;;;;4940439;28;20047;-64
2022/11/14 03:30:52;;;;;;;13.40;9.10;;;3.30;99.90;;;;;;4940390;28;20317;-64
2022/11/14 03:33:18;;;;;;;13.32;9.07;;;3.20;99.90;;;;;;4949082;28;20046;-64
2022/11/14 03:35:43;;;;;;;13.45;9.35;;;3.20;99.90;;;;;;4943484;28;20150;-64
2022/11/14 03:38:09;;;;;;;13.07;9.57;;;3.10;99.90;;;;;;4941075;28;20118;-64
2022/11/14 03:40:38;;;;;;;12.80;9.50;;;3.10;99.90;;;;;;4949806;28;20150;-64
2022/11/14 03:43:03;;;;;;;13.73;9.85;;;3.10;99.90;;;;;;4931599;28;20046;-64
2022/11/14 03:45:29;;;;;;;13.68;10.48;;;3.10;99.90;;;;;;4949846;28;20043;-64
2022/11/14 03:47:55;;;;;;;12.60;9.32;;;;;;;;;;4947065;28;20039;-64
2022/11/14 03:50:20;;;;;;;12.18;9.30;;;3.10;99.90;;;;;;4958864;28;20155;-64
2022/11/14 03:52:48;;;;;;;14.27;9.70;;;3.10;99.90;;;;;;4949736;28;20057;-64
2022/11/14 03:55:14;;;;;;;13.73;10.32;;;3.10;99.90;;;;;;4940887;28;20503;-64
2022/11/14 03:57:39;;;;;;;13.55;9.57;;;3.30;99.90;;;;;;4950202;28;20039;-64
2022/11/14 04:00:06;;;;;;;14.18;9.50;;;3.20;99.90;;;;;;4946312;28;20625;-64
2022/11/14 04:02:31;;;;;;;13.50;9.85;;;3.10;99.90;;;;;;4940105;28;20393;-64
2022/11/14 04:04:57;;;;;;;14.15;9.38;;;3.10;99.90;;;;;;4940105;28;20039;-64
2022/11/14 04:07:22;;;;;;;14.02;10.60;;;3.10;99.90;;;;;;4946232;28;20035;-63
2022/11/14 04:09:48;;;;;;;13.60;9.35;;;3.20;99.90;;;;;;4942623;28;20051;-64
2022/11/14 04:12:13;;;;;;;16.17;9.40;;;3.20;99.90;;;;;;4948080;28;20501;-64
2022/11/14 04:14:39;;;;;;;14.32;9.63;;;3.00;99.90;;;;;;4928830;29;20597;-64
2022/11/14 04:17:04;;;;;;;13.77;9.85;;;3.00;99.90;;;;;;4942151;28;20375;-64
2022/11/14 04:19:30;;;;;;;12.38;9.35;;;3.00;99.90;;;;;;4949699;28;20045;-64
2022/11/14 04:21:55;;;;;;;11.75;8.93;;;3.00;99.90;;;;;;4944126;28;20032;-64
2022/11/14 04:24:21;;;;;;;12.18;9.02;;;3.00;99.90;;;;;;4941300;28;20115;-64
2022/11/14 04:26:46;;;;;;;13.73;10.02;;;3.00;99.90;;;;;;4942976;28;20035;-64
2022/11/14 04:29:12;;;;;;;17.38;11.00;;;3.00;99.90;;;;;;4938974;28;20051;-64
2022/11/14 04:31:37;;;;;;;15.90;11.85;;;2.90;99.90;;;;;;4943922;28;20071;-64
2022/11/14 04:34:03;;;;;;;17.65;12.70;;;2.90;99.90;;;;;;4947516;28;20106;-64
2022/11/14 04:36:28;;;;;;;16.48;12.00;;;2.90;99.90;;;;;;4948383;28;20038;-64
2022/11/14 04:38:54;;;;;;;17.45;11.40;;;2.90;99.90;;;;;;4942964;28;20035;-64
2022/11/14 04:41:19;;;;;;;17.25;12.23;;;2.90;99.90;;;;;;4951631;28;20043;-65
2022/11/14 04:43:45;;;;;;;18.02;11.88;;;2.90;99.90;;;;;;4943168;28;20047;-64
2022/11/14 04:46:10;;;;;;;14.95;11.45;;;2.90;99.90;;;;;;4949258;28;20135;-64
2022/11/14 04:48:36;;;;;;;24.63;14.70;;;2.90;99.90;;;;;;4945773;28;20118;-64
2022/11/14 04:51:02;;;;;;;34.78;20.55;;;2.80;99.90;;;;;;4943861;28;20035;-65
2022/11/14 04:53:27;;;;;;;26.20;17.05;;;2.80;99.90;;;;;;4943612;28;20141;-64
2022/11/14 04:55:53;;;;;;;26.48;15.95;;;2.80;99.90;;;;;;4928158;28;20061;-65
2022/11/14 04:58:18;;;;;;;20.70;14.25;;;2.80;99.90;;;;;;4942533;28;20138;-65
2022/11/14 05:00:44;;;;;;;17.25;12.50;;;2.80;99.90;;;;;;4944785;28;20498;-65
2022/11/14 05:03:09;;;;;;;18.02;11.40;;;2.90;99.90;;;;;;4948668;28;20857;-65
2022/11/14 05:05:35;;;;;;;15.75;10.98;;;2.80;99.90;;;;;;4950606;28;20039;-65
2022/11/14 05:08:00;;;;;;;16.55;10.57;;;2.70;99.90;;;;;;4948363;28;20442;-65
2022/11/14 05:10:26;;;;;;;13.18;9.82;;;2.80;99.90;;;;;;4944339;28;20487;-65
2022/11/14 05:12:54;;;;;;;14.50;9.23;;;2.80;99.90;;;;;;4939318;28;20123;-65
2022/11/14 05:15:20;;;;;;;15.48;9.63;;;2.80;99.90;;;;;;4942408;28;20114;-65
2022/11/14 05:17:46;;;;;;;14.18;10.10;;;2.80;99.90;;;;;;4939829;28;20416;-65
2022/11/14 05:20:12;;;;;;;16.65;10.77;;;2.80;99.90;;;;;;4948868;28;20052;-65
2022/11/14 05:22:37;;;;;;;16.20;10.40;;;2.80;99.90;;;;;;4943688;28;20027;-65
2022/11/14 05:25:04;;;;;;;13.30;10.15;;;2.80;99.90;;;;;;4940450;28;20328;-65
2022/11/14 05:27:30;;;;;;;15.32;10.02;;;2.80;99.90;;;;;;4943245;28;20039;-65
2022/11/14 05:29:55;;;;;;;16.65;10.05;;;2.80;99.90;;;;;;4942198;28;20062;-65
2022/11/14 05:32:21;;;;;;;15.52;9.95;;;2.80;99.90;;;;;;4941933;28;20073;-64
2022/11/14 05:34:47;;;;;;;13.40;9.50;;;2.80;99.90;;;;;;4944938;28;20138;-64
2022/11/14 05:37:12;;;;;;;14.18;9.50;;;2.80;99.90;;;;;;4943250;28;20402;-64
2022/11/14 05:39:38;;;;;;;12.75;8.27;;;2.80;99.90;;;;;;4952151;28;20126;-64
2022/11/14 05:42:04;;;;;;;15.00;9.82;;;2.80;99.90;;;;;;4945199;28;20122;-64
2022/11/14 05:44:29;;;;;;;12.07;8.50;;;2.80;99.90;;;;;;4947072;28;20039;-64
2022/11/14 05:46:55;;;;;;;13.35;8.50;;;2.80;99.90;;;;;;4940410;28;20068;-64
2022/11/14 05:49:21;;;;;;;15.32;9.43;;;2.80;99.90;;;;;;4944503;28;20027;-65
2022/11/14 05:51:47;;;;;;;15.30;9.18;;;2.80;99.90;;;;;;4942627;28;20514;-64
2022/11/14 05:54:12;;;;;;;12.88;8.45;;;2.70;99.90;;;;;;4943542;28;20126;-64
2022/11/14 05:56:38;;;;;;;14.98;8.90;;;2.80;99.90;;;;;;4941728;28;20071;-64
2022/11/14 05:59:04;;;;;;;14.88;9.40;;;2.80;99.90;;;;;;4938472;28;20093;-64
2022/11/14 06:01:29;;;;;;;11.95;8.50;;;2.80;99.90;;;;;;4938417;28;20035;-64
2022/11/14 06:03:55;;;;;;;13.30;9.50;;;2.70;99.90;;;;;;4939007;28;20043;-65
2022/11/14 06:06:21;;;;;;;13.52;8.65;;;2.70;99.90;;;;;;4938971;28;21996;-65
2022/11/14 06:08:47;;;;;;;13.10;8.55;;;2.80;99.90;;;;;;4937684;28;20054;-66
2022/11/14 06:11:18;;;;;;;12.85;9.43;;;2.80;99.90;;;;;;4915273;29;20031;-64
2022/11/14 06:13:44;;;;;;;12.15;8.63;;;2.80;99.90;;;;;;4937466;28;20538;-64
2022/11/14 06:16:12;;;;;;;13.48;8.65;;;2.80;99.90;;;;;;4940032;28;20118;-65
2022/11/14 06:18:38;;;;;;;13.52;8.63;;;2.80;99.90;;;;;;4940961;28;20063;-65
2022/11/14 06:21:06;;;;;;;11.43;7.45;;;2.80;99.90;;;;;;4925554;28;20066;-65
2022/11/14 06:23:32;;;;;;;14.02;8.75;;;2.70;99.90;;;;;;4942131;28;20059;-63
2022/11/14 06:26:02;;;;;;;17.67;9.02;;;2.80;99.90;;;;;;4939441;28;20074;-63
2022/11/14 06:28:28;;;;;;;13.77;8.95;;;2.80;99.90;;;;;;4942564;28;20510;-64
2022/11/14 06:31:02;;;;;;;13.27;8.73;;;2.80;99.90;;;;;;4939071;28;20035;-64
2022/11/14 06:33:28;;;;;;;13.52;8.55;;;2.80;99.90;;;;;;4936576;28;20130;-64
2022/11/14 06:35:58;;;;;;;12.23;8.13;;;2.80;99.90;;;;;;4940621;28;20103;-64
2022/11/14 06:38:24;;;;;;;11.70;8.02;;;2.70;99.90;;;;;;4940782;28;20167;-64
2022/11/14 06:40:50;;;;;;;14.70;8.10;;;2.70;99.90;;;;;;4942712;28;20145;-64
2022/11/14 06:43:15;;;;;;;12.35;8.18;;;2.70;99.90;;;;;;4941536;28;20035;-64
2022/11/14 06:45:41;;;;;;;13.95;8.35;;;2.70;99.90;;;;;;4943609;28;20039;-64
2022/11/14 06:48:06;;;;;;;13.98;8.07;;;2.80;99.90;;;;;;4926701;28;20031;-64
2022/11/14 06:50:32;;;;;;;13.85;8.02;;;2.70;99.90;;;;;;4950864;28;20035;-64
2022/11/14 06:52:57;;;;;;;13.18;7.97;;;2.70;99.90;;;;;;4954317;28;20144;-64
2022/11/14 06:55:23;;;;;;;12.95;8.70;;;2.70;99.90;;;;;;4951223;28;20235;-64
2022/11/14 06:57:53;;;;;;;14.05;8.75;;;2.70;99.90;;;;;;4952899;28;20063;-64
2022/11/14 07:00:20;;;;;;;14.25;8.55;;;2.70;99.90;;;;;;4939421;28;20039;-63
2022/11/14 07:02:46;;;;;;;13.25;8.57;;;2.70;99.90;;;;;;4943657;28;20036;-64
2022/11/14 07:05:12;;;;;;;14.35;8.55;;;2.70;99.90;;;;;;4945745;28;20130;-64
2022/11/14 07:07:37;;;;;;;12.35;8.60;;;2.70;99.90;;;;;;4943777;28;20083;-64
2022/11/14 07:10:03;;;;;;;19.13;9.43;;;2.80;99.90;;;;;;4945318;28;20023;-64
2022/11/14 07:12:29;;;;;;;17.48;9.82;;;2.80;99.90;;;;;;4949281;28;20034;-64
2022/11/14 07:14:54;;;;;;;17.15;9.98;;;2.80;99.90;;;;;;4940060;28;20035;-64
2022/11/14 07:17:20;;;;;;;12.30;9.18;;;2.80;99.90;;;;;;4940926;28;20280;-64
2022/11/14 07:19:46;;;;;;;14.90;9.68;;;2.80;99.90;;;;;;4936462;28;20407;-64
2022/11/14 07:22:11;;;;;;;15.82;9.30;;;2.80;99.90;;;;;;4938477;28;20058;-64
2022/11/14 07:24:37;;;;;;;12.90;9.18;;;2.90;99.90;;;;;;4925060;29;20284;-64
2022/11/14 07:27:07;;;;;;;16.52;9.15;;;2.90;99.90;;;;;;4940358;28;20034;-64
2022/11/14 07:29:33;;;;;;;15.63;9.48;;;3.00;99.90;;;;;;4939085;28;20098;-64
2022/11/14 07:31:58;;;;;;;14.27;9.60;;;3.00;99.90;;;;;;4942172;28;20098;-64
2022/11/14 07:34:24;;;;;;;16.00;9.38;;;3.10;99.90;;;;;;4944637;28;20038;-64
2022/11/14 07:36:49;;;;;;;12.63;8.80;;;3.10;99.90;;;;;;4944357;28;20119;-64
2022/11/14 07:39:15;;;;;;;11.55;8.57;;;3.20;99.90;;;;;;4940400;28;20062;-64
2022/11/14 07:41:40;;;;;;;20.90;9.50;;;3.20;99.90;;;;;;4943386;28;20648;-64
2022/11/14 07:44:06;;;;;;;21.38;10.07;;;3.30;99.90;;;;;;4945997;28;20041;-64
2022/11/14 07:46:32;;;;;;;19.27;9.95;;;3.30;99.90;;;;;;4946151;28;20046;-64
2022/11/14 07:48:57;;;;;;;19.63;10.43;;;3.40;99.90;;;;;;4943810;28;20042;-64
2022/11/14 07:51:23;;;;;;;17.88;11.00;;;3.50;99.90;;;;;;4942635;28;20118;-63
2022/11/14 07:53:51;;;;;;;32.13;12.05;;;3.50;99.90;;;;;;4927287;28;20443;-64
2022/11/14 07:56:19;;;;;;;26.60;14.70;;;3.70;99.90;;;;;;4941674;28;20485;-63
2022/11/14 07:58:44;;;;;;;25.20;12.55;;;3.80;99.90;;;;;;4940952;28;20134;-63
2022/11/14 08:01:12;;;;;;;17.48;11.93;;;4.00;99.90;;;;;;4935380;28;20145;-63
2022/11/14 08:03:38;;;;;;;17.40;11.05;;;4.30;99.90;;;;;;4943892;28;20066;-63
2022/11/14 08:06:08;;;;;;;17.00;11.02;;;4.50;99.90;;;;;;4944324;28;20427;-64
2022/11/14 08:08:33;;;;;;;19.90;12.65;;;4.70;99.90;;;;;;4949597;28;20614;-66
2022/11/14 08:11:00;;;;;;;21.55;13.68;;;4.80;99.90;;;;;;4943115;28;20039;-65
2022/11/14 08:13:26;;;;;;;22.83;13.50;;;5.00;99.90;;;;;;4945671;28;20047;-65
2022/11/14 08:15:52;;;;;;;22.65;14.25;;;5.10;99.90;;;;;;4942965;28;20134;-64
2022/11/14 08:18:18;;;;;;;26.75;15.10;;;5.30;99.90;;;;;;4946585;28;20063;-65
2022/11/14 08:20:44;;;;;;;29.95;15.85;;;5.40;99.90;;;;;;4943938;28;20063;-65
2022/11/14 08:23:10;;;;;;;27.60;17.70;;;5.40;99.90;;;;;;4942600;28;20057;-65
2022/11/14 08:25:35;;;;;;;25.63;16.73;;;5.60;99.90;;;;;;4944085;28;20522;-65
2022/11/14 08:28:01;;;;;;;29.10;19.25;;;5.70;99.90;;;;;;4945189;28;20023;-65
2022/11/14 08:30:27;;;;;;;30.05;18.67;;;5.80;99.90;;;;;;4948586;28;20031;-65
2022/11/14 08:32:53;;;;;;;29.60;18.48;;;5.90;99.90;;;;;;4943580;28;20038;-65
2022/11/14 08:35:19;;;;;;;30.55;19.35;;;6.00;99.90;;;;;;4938376;28;20042;-65
2022/11/14 08:37:45;;;;;;;34.65;19.60;;;6.00;99.90;;;;;;4941748;28;20181;-65
2022/11/14 08:40:11;;;;;;;32.38;20.02;;;6.10;99.90;;;;;;4943985;28;20110;-65
2022/11/14 08:42:36;;;;;;;29.58;19.10;;;6.20;99.90;;;;;;4943983;28;20411;-65
2022/11/14 08:45:03;;;;;;;34.35;19.73;;;6.20;99.90;;;;;;4943263;28;20035;-65
2022/11/14 08:47:29;;;;;;;33.08;20.17;;;6.30;99.90;;;;;;4941312;28;20581;-65
2022/11/14 08:49:54;;;;;;;32.90;20.95;;;6.40;99.90;;;;;;4942680;28;20086;-67
2022/11/14 08:52:20;;;;;;;31.67;19.88;;;6.40;99.90;;;;;;4947069;28;20332;-65
2022/11/14 08:54:46;;;;;;;30.85;19.30;;;6.40;99.90;;;;;;4932348;28;20035;-65
2022/11/14 08:57:14;;;;;;;31.50;20.48;;;6.50;99.90;;;;;;4943118;28;20038;-65
2022/11/14 08:59:40;;;;;;;31.73;19.25;;;6.50;99.90;;;;;;4943567;28;20027;-65
2022/11/14 09:02:08;;;;;;;32.03;20.60;;;6.70;99.90;;;;;;4944015;28;20081;-65
2022/11/14 09:04:33;;;;;;;30.98;19.92;;;6.70;99.90;;;;;;4942089;28;20039;-65
2022/11/14 09:06:59;;;;;;;32.38;19.35;;;6.80;99.90;;;;;;4941930;28;20098;-65
2022/11/14 09:09:24;;;;;;;28.60;19.80;;;6.80;99.90;;;;;;4941167;28;20174;-65
2022/11/14 09:11:50;;;;;;;31.15;19.73;;;6.90;99.90;;;;;;4946382;28;20035;-65
2022/11/14 09:14:15;;;;;;;31.17;19.02;;;7.00;99.90;;;;;;4944627;28;20043;-65
2022/11/14 09:16:41;;;;;;;28.52;18.52;;;7.00;99.90;;;;;;4943282;28;20035;-65
2022/11/14 09:19:06;;;;;;;32.92;19.38;;;7.10;99.90;;;;;;4939832;28;20039;-65
2022/11/14 09:21:32;;;;;;;30.98;18.70;;;7.10;99.90;;;;;;4943179;28;20684;-65
2022/11/14 09:23:58;;;;;;;33.63;20.33;;;7.20;99.90;;;;;;4940161;28;20040;-65
2022/11/14 09:26:23;;;;;;;30.90;19.38;;;7.30;99.90;;;;;;4943066;28;20058;-65
2022/11/14 09:28:49;;;;;;;33.03;19.25;;;7.30;99.90;;;;;;4936926;28;20107;-65
2022/11/14 09:31:14;;;;;;;175.50;126.05;;;7.30;99.90;;;;;;4944036;28;20043;-65
2022/11/14 09:33:40;;;;;;;61.22;39.58;;;7.40;99.90;;;;;;4940783;28;20105;-65
2022/11/14 09:36:09;;;;;;;32.65;19.95;;;7.40;99.90;;;;;;4944300;28;20102;-65
2022/11/14 09:38:34;;;;;;;33.63;20.33;;;7.40;99.90;;;;;;4949201;28;20027;-65
2022/11/14 09:41:23;;;;;;;35.63;19.58;;;7.40;99.90;;;;;;4941422;28;20372;-64
2022/11/14 09:44:07;;;;;;;37.47;19.95;;;7.40;99.90;;;;;;4941234;28;20042;-65
2022/11/14 09:46:37;;;;;;;35.70;21.10;;;7.30;99.90;;;;;;4938316;28;20102;-64
2022/11/14 09:49:08;;;;;;;37.85;21.27;;;7.40;99.90;;;;;;4943393;28;20090;-65
2022/11/14 09:51:43;;;;;;;34.28;20.38;;;7.40;99.90;;;;;;4937532;28;20078;-64
2022/11/14 09:54:22;;;;;;;28.42;18.75;;;7.50;99.90;;;;;;4944353;28;20035;-64
2022/11/14 09:56:48;;;;;;;33.97;19.58;;;7.60;99.90;;;;;;4939581;28;20182;-65
2022/11/14 09:59:14;;;;;;;30.55;19.38;;;7.60;99.90;;;;;;4938258;28;20126;-64
2022/11/14 10:01:54;;;;;;;32.85;19.17;;;7.70;99.90;;;;;;4938943;28;20126;-65
2022/11/14 10:04:31;;;;;;;34.33;19.63;;;7.70;99.90;;;;;;4947196;28;20043;-64
2022/11/14 10:07:22;;;;;;;33.15;19.13;;;7.70;99.90;;;;;;4943239;28;20645;-64
2022/11/14 10:10:16;;;;;;;34.05;18.83;;;7.80;99.90;;;;;;4949984;28;20019;-64
2022/11/14 10:13:22;;;;;;;31.17;19.90;;;7.80;99.90;;;;;;4922588;28;20046;-64
2022/11/14 10:16:03;;;;;;;31.08;19.13;;;7.80;99.90;;;;;;4943313;28;20036;-64
2022/11/14 10:18:54;;;;;;;30.02;19.38;;;7.90;99.90;;;;;;4939674;28;20317;-63
2022/11/14 10:21:34;;;;;;;37.08;20.15;;;7.90;99.90;;;;;;4929397;28;20791;-64
2022/11/14 10:24:17;;;;;;;30.85;19.58;;;8.00;99.90;;;;;;4950794;28;20024;-64
2022/11/14 10:26:58;;;;;;;27.60;17.40;;;8.00;99.90;;;;;;4917131;29;20512;-64
2022/11/14 10:29:43;;;;;;;28.15;18.33;;;8.00;99.90;;;;;;4946223;28;20101;-64
2022/11/14 10:32:48;;;;;;;29.00;18.08;;;8.10;99.90;;;;;;4942143;28;20050;-65
2022/11/14 10:35:21;;;;;;;29.42;17.27;;;8.10;99.90;;;;;;4922897;28;20038;-64
2022/11/14 10:38:08;;;;;;;28.33;16.95;;;8.10;99.90;;;;;;4924987;28;20086;-64
2022/11/14 10:40:41;;;;;;;32.45;18.13;;;8.10;99.90;;;;;;4942939;28;20161;-65
2022/11/14 10:43:30;;;;;;;30.92;18.08;;;8.00;99.90;;;;;;4945252;28;20045;-64
2022/11/14 10:46:04;;;;;;;27.65;17.08;;;8.10;99.90;;;;;;4945706;28;20058;-64
2022/11/14 10:48:31;;;;;;;;;;;8.10;99.90;;;;;;4952890;28;20355;-64
2022/11/14 10:51:00;;;;;;;28.58;16.95;;;8.20;99.90;;;;;;4944115;28;19918;-64
2022/11/14 10:53:50;;;;;;;28.80;16.50;;;8.20;99.90;;;;;;4940696;28;20074;-64
2022/11/14 10:56:15;;;;;;;25.50;15.15;;;8.20;99.90;;;;;;4937524;28;20046;-64
2022/11/14 10:58:42;;;;;;;21.90;14.32;;;8.20;99.90;;;;;;4939135;28;20413;-64
2022/11/14 11:01:34;;;;;;;20.75;13.77;;;8.20;99.90;;;;;;4942135;28;20043;-64
2022/11/14 11:04:25;;;;;;;22.27;13.32;;;8.30;99.90;;;;;;4942810;28;20058;-64
2022/11/14 11:07:06;;;;;;;21.90;14.07;;;8.30;99.90;;;;;;4934856;28;20043;-64
2022/11/14 11:12:22;;;;;;;20.90;13.02;;;8.50;99.90;;;;;;4940851;28;20045;-65
2022/11/14 11:15:06;;;;;;;21.27;12.48;;;8.50;99.90;;;;;;4939969;28;20515;-65
2022/11/14 11:17:32;;;;;;;19.70;13.05;;;8.50;99.90;;;;;;4943298;28;20054;-64
2022/11/14 11:20:27;;;;;;;19.05;13.05;;;8.60;99.90;;;;;;4937346;28;20043;-64
2022/11/14 11:23:04;;;;;;;20.00;12.23;;;8.70;99.90;;;;;;4941371;28;20031;-64
2022/11/14 11:25:31;;;;;;;19.65;13.13;;;8.80;99.90;;;;;;4927527;28;20047;-64
2022/11/14 11:28:11;;;;;;;19.45;13.07;;;8.80;99.90;;;;;;4940852;28;20397;-65
2022/11/14 11:30:37;;;;;;;21.27;12.65;;;8.90;99.90;;;;;;4941875;28;20031;-64
2022/11/14 11:33:19;;;;;;;21.52;13.95;;;8.80;99.90;;;;;;4942632;28;20043;-63
2022/11/14 11:35:48;;;;;;;21.90;13.52;;;8.90;99.90;;;;;;4944942;28;20046;-64
2022/11/14 11:38:15;;;;;;;22.65;13.95;;;8.80;99.90;;;;;;4940793;28;20057;-64
2022/11/14 11:40:43;;;;;;;21.70;13.50;;;8.80;99.90;;;;;;4940666;28;20159;-64
2022/11/14 11:43:37;;;;;;;20.73;13.60;;;8.90;99.90;;;;;;4940821;28;20133;-64
2022/11/14 11:46:18;;;;;;;20.73;13.45;;;8.90;99.90;;;;;;4939292;28;20460;-64
2022/11/14 11:48:46;;;;;;;21.30;13.10;;;9.00;99.90;;;;;;4943412;28;20135;-64
2022/11/14 11:51:17;;;;;;;20.17;13.98;;;9.00;99.90;;;;;;4933504;28;20071;-64
2022/11/14 11:53:49;;;;;;;22.48;14.32;;;9.10;99.90;;;;;;4944120;28;20039;-64
2022/11/14 11:56:24;;;;;;;20.73;13.35;;;9.10;99.90;;;;;;4944055;28;20064;-64
2022/11/14 11:58:52;;;;;;;22.33;14.25;;;9.10;99.90;;;;;;4942399;28;22084;-63
2022/11/14 12:01:18;;;;;;;24.25;14.35;;;9.10;99.90;;;;;;4937899;28;20047;-64
2022/11/14 12:03:51;;;;;;;24.92;14.23;;;9.20;99.90;;;;;;4941344;28;20072;-64
2022/11/14 12:06:26;;;;;;;22.63;14.32;;;9.20;99.90;;;;;;4943321;28;20050;-64
2022/11/14 12:09:11;;;;;;;25.75;15.68;;;9.10;99.90;;;;;;4940797;28;20032;-64
2022/11/14 12:11:40;;;;;;;23.30;15.00;;;9.00;99.90;;;;;;4933061;28;20105;-64
2022/11/14 12:14:44;;;;;;;24.77;15.13;;;9.00;99.90;;;;;;4935308;28;20470;-64
2022/11/14 12:17:26;;;;;;;22.83;15.43;;;9.00;99.90;;;;;;4939385;28;20925;-64
2022/11/14 12:20:07;;;;;;;25.52;16.20;;;9.00;99.90;;;;;;4934932;28;20432;-64
2022/11/14 12:22:41;;;;;;;23.40;15.73;;;9.20;99.90;;;;;;4937991;28;20043;-64
2022/11/14 12:25:22;;;;;;;25.58;15.82;;;9.40;99.90;;;;;;4936098;28;20047;-65
2022/11/14 12:27:50;;;;;;;24.00;15.35;;;9.50;99.90;;;;;;4940011;28;20654;-65
2022/11/14 12:30:22;;;;;;;24.10;16.00;;;9.40;99.90;;;;;;4938458;28;20388;-65
2022/11/14 12:33:00;;;;;;;26.05;15.82;;;9.30;99.90;;;;;;4942227;28;20522;-65
2022/11/14 12:35:33;;;;;;;23.45;16.13;;;9.30;99.90;;;;;;4942472;28;20268;-65
2022/11/14 12:38:04;;;;;;;27.17;17.42;;;9.40;99.90;;;;;;4941755;28;20209;-64
2022/11/14 12:40:34;;;;;;;25.30;15.90;;;9.50;99.90;;;;;;4940733;28;20062;-65
2022/11/14 12:43:01;;;;;;;24.70;16.73;;;9.60;99.90;;;;;;4942419;28;20083;-65
2022/11/14 12:45:39;;;;;;;23.50;16.25;;;9.60;99.90;;;;;;4946538;28;20130;-64
2022/11/14 12:48:21;;;;;;;23.83;16.35;;;9.60;99.90;;;;;;4938838;28;20640;-64
2022/11/14 12:50:46;;;;;;;24.73;15.02;;;9.60;99.90;;;;;;4948563;28;20874;-65